Norwegian Crown — C6II4 — position and weather

sailwx.info

Track history (hours):
 
Tides and Currents Weather Stations Pressure Air Temp Water Temp Dewpoint Dewpoint Depression Visibility Wind Speed Wind Dir Waves Ship Positions

Norwegian Crown

Operator: Norwegian Cruise Line

Last reported at 2014-Nov-24 04:18 UTC. Time now 2014-Nov-27 09:34 UTC.
Position N 26°08' W 078°15'.

Type: Passenger vessel. MMSI: 308785000.

Date/timePositionNaut miles runAvg speedWind from/ knotsBaromVisibWave heightAir tempDewpointWater temp
2014-Nov-24 04:18N 26°08' W 078°15'5310.9
2014-Nov-23 23:25N 26°14' W 079°14'1011.1
2014-Nov-23 22:33N 26°06' W 079°20'1111.1
2014-Nov-23 21:34N 25°57' W 079°26'1111.4
2014-Nov-23 20:33N 25°47' W 079°33'  
2014-Nov-17 10:11N 17°06' W 062°03'711.3
2014-Nov-17 09:33N 16°59' W 062°04'1211.5
2014-Nov-17 08:34N 16°48' W 062°01'1111.3
2014-Nov-17 07:34N 16°36' W 061°60'1514.7
2014-Nov-17 06:33N 16°22' W 061°59'  
Track history (hours):
 
Tides and Currents Weather Stations Pressure Air Temp Water Temp Dewpoint Dewpoint Depression Visibility Wind Speed Wind Dir Waves Ship Positions

Norwegian Crown

Operator: Norwegian Cruise Line

Last reported at 2014-Nov-24 04:18 UTC. Time now 2014-Nov-27 09:34 UTC.
Position N 26°08' W 078°15'.

Type: Passenger vessel. MMSI: 308785000.

Date/timePositionNaut miles runAvg speedWind from/ knotsBaromVisibWave heightAir tempDewpointWater temp
2014-Nov-24 04:18N 26°08' W 078°15'5310.9
2014-Nov-23 23:25N 26°14' W 079°14'1011.1
2014-Nov-23 22:33N 26°06' W 079°20'1111.1
2014-Nov-23 21:34N 25°57' W 079°26'1111.4
2014-Nov-23 20:33N 25°47' W 079°33'  
2014-Nov-17 10:11N 17°06' W 062°03'711.3
2014-Nov-17 09:33N 16°59' W 062°04'1211.5
2014-Nov-17 08:34N 16°48' W 062°01'1111.3
2014-Nov-17 07:34N 16°36' W 061°60'1514.7
2014-Nov-17 06:33N 16°22' W 061°59'  

Dump ship's entire track history